createdAt,value
2018-07-22T00:01:00.208Z,101031.48
2018-07-22T00:04:24.685Z,101031.70
2018-07-22T00:07:55.643Z,101036.01
2018-07-22T00:11:20.177Z,101035.91
2018-07-22T00:14:44.675Z,101042.27
2018-07-22T00:18:09.139Z,101041.74
2018-07-22T00:21:33.617Z,101039.70
2018-07-22T00:24:58.069Z,101042.83
2018-07-22T00:28:22.510Z,101046.95
2018-07-22T00:31:47.029Z,101049.20
2018-07-22T00:35:12.334Z,101046.80
2018-07-22T00:38:36.805Z,101048.85
2018-07-22T00:42:01.288Z,101053.13
2018-07-22T00:45:25.769Z,101053.70
2018-07-22T00:48:50.197Z,101054.39
2018-07-22T00:52:14.669Z,101059.34
2018-07-22T00:55:39.133Z,101061.06
2018-07-22T00:59:03.572Z,101057.98
2018-07-22T01:02:28.075Z,101049.73
2018-07-22T01:05:52.551Z,101054.03
2018-07-22T01:09:16.983Z,101057.80
2018-07-22T01:12:41.438Z,101054.53
2018-07-22T01:16:05.957Z,101053.00
2018-07-22T01:19:30.432Z,101053.11
2018-07-22T01:22:54.897Z,101056.05
2018-07-22T01:26:19.333Z,101057.26
2018-07-22T01:29:43.776Z,101055.41
2018-07-22T01:33:08.266Z,101054.69
2018-07-22T01:36:32.740Z,101052.28
2018-07-22T01:39:57.178Z,101053.64
2018-07-22T01:43:21.675Z,101058.73
2018-07-22T01:46:46.076Z,101057.37
2018-07-22T01:50:10.520Z,101058.03
2018-07-22T01:53:34.956Z,101065.20
2018-07-22T01:56:59.392Z,101066.23
2018-07-22T02:00:23.831Z,101065.64
2018-07-22T02:03:48.275Z,101067.05
2018-07-22T02:07:12.714Z,101069.28
2018-07-22T02:10:37.184Z,101071.51
2018-07-22T02:14:01.609Z,101072.67
2018-07-22T02:17:26.095Z,101071.02
2018-07-22T02:20:50.590Z,101071.22
2018-07-22T02:24:21.744Z,101074.56
2018-07-22T02:27:46.231Z,101075.93
2018-07-22T02:31:10.713Z,101069.48
2018-07-22T02:34:35.207Z,101071.48
2018-07-22T02:37:59.706Z,101070.73
2018-07-22T02:41:24.181Z,101075.70
2018-07-22T02:44:48.621Z,101068.05
2018-07-22T02:48:13.085Z,101072.73
2018-07-22T02:51:37.628Z,101070.68
2018-07-22T02:55:02.035Z,101068.28
2018-07-22T02:58:26.594Z,101071.63
2018-07-22T03:01:51.132Z,101073.06
2018-07-22T03:05:15.577Z,101077.83
2018-07-22T03:08:40.086Z,101077.61
2018-07-22T03:12:04.607Z,101077.09
2018-07-22T03:15:29.070Z,101084.78
2018-07-22T03:18:53.238Z,101090.77
2018-07-22T03:22:17.745Z,101094.45
2018-07-22T03:25:42.193Z,101100.82
2018-07-22T03:29:06.687Z,101103.13
2018-07-22T03:32:31.267Z,101109.17
2018-07-22T03:35:55.777Z,101115.67
2018-07-22T03:39:20.269Z,101113.73
2018-07-22T03:42:44.759Z,101124.42
2018-07-22T03:46:09.201Z,101126.75
2018-07-22T03:49:33.650Z,101135.17
2018-07-22T03:52:58.114Z,101126.65
2018-07-22T03:56:22.525Z,101132.70
2018-07-22T03:59:47.126Z,101130.47
2018-07-22T04:03:11.597Z,101126.58
2018-07-22T04:06:36.067Z,101130.23
2018-07-22T04:10:00.532Z,101135.22
2018-07-22T04:13:24.980Z,101131.95
2018-07-22T04:16:49.437Z,101141.03
2018-07-22T04:20:13.893Z,101146.72
2018-07-22T04:23:38.340Z,101148.67
2018-07-22T04:27:02.772Z,101140.03
2018-07-22T04:30:27.223Z,101146.80
2018-07-22T04:33:51.659Z,101154.27
2018-07-22T04:37:16.135Z,101152.77
2018-07-22T04:40:40.581Z,101154.58
2018-07-22T04:44:05.177Z,101162.00
2018-07-22T04:47:29.657Z,101161.16
2018-07-22T04:50:54.509Z,101170.60
2018-07-22T04:54:18.982Z,101165.65
2018-07-22T04:57:43.421Z,101167.44
2018-07-22T05:01:07.954Z,101163.48
2018-07-22T05:04:32.425Z,101166.54
2018-07-22T05:07:56.888Z,101176.71
2018-07-22T05:11:21.323Z,101175.55
2018-07-22T05:14:45.799Z,101180.05
2018-07-22T05:18:10.268Z,101191.19
2018-07-22T05:21:34.712Z,101181.71
2018-07-22T05:24:59.172Z,101188.14
2018-07-22T05:28:23.660Z,101196.40
2018-07-22T05:31:48.070Z,101186.37
2018-07-22T05:35:12.513Z,101190.98
2018-07-22T05:38:36.937Z,101194.03
2018-07-22T05:42:01.449Z,101191.55
2018-07-22T05:45:25.912Z,101195.95
2018-07-22T05:48:50.415Z,101191.94
2018-07-22T05:52:14.895Z,101191.30
2018-07-22T05:55:39.387Z,101193.84
2018-07-22T05:59:03.887Z,101197.37
2018-07-22T06:02:28.377Z,101202.73
2018-07-22T06:09:16.354Z,101216.72
2018-07-22T06:12:40.878Z,101222.23
2018-07-22T06:16:05.475Z,101219.57
2018-07-22T06:19:30.036Z,101217.87
2018-07-22T06:22:54.507Z,101218.74
2018-07-22T06:26:18.957Z,101220.83
2018-07-22T06:29:43.451Z,101222.74
2018-07-22T06:33:07.948Z,101218.70
2018-07-22T06:36:32.390Z,101211.22
2018-07-22T06:39:56.827Z,101220.36
2018-07-22T06:43:21.318Z,101224.01
2018-07-22T06:46:45.924Z,101224.78
2018-07-22T06:50:10.335Z,101221.27
2018-07-22T06:53:34.596Z,101232.66
2018-07-22T06:56:59.069Z,101235.58
2018-07-22T07:00:23.544Z,101238.06
2018-07-22T07:03:47.989Z,101243.00
2018-07-22T07:07:12.453Z,101248.13
2018-07-22T07:10:36.933Z,101252.28
2018-07-22T07:14:01.403Z,101238.81
2018-07-22T07:17:25.899Z,101246.26
2018-07-22T07:20:50.392Z,101247.45
2018-07-22T07:24:14.899Z,101247.28
2018-07-22T07:27:39.351Z,101248.79
2018-07-22T07:31:03.809Z,101251.56
2018-07-22T07:34:28.276Z,101249.16
2018-07-22T07:37:52.742Z,101244.63
2018-07-22T07:41:17.233Z,101245.95
2018-07-22T07:44:41.678Z,101238.84
2018-07-22T07:48:06.658Z,101237.32
2018-07-22T07:51:31.173Z,101236.13
2018-07-22T07:54:55.667Z,101248.23
2018-07-22T07:58:20.136Z,101241.64
2018-07-22T08:01:44.634Z,101241.70
2018-07-22T08:05:09.115Z,101242.69
2018-07-22T08:08:33.259Z,101248.77
2018-07-22T08:11:57.689Z,101243.98
2018-07-22T08:15:22.110Z,101244.80
2018-07-22T08:18:46.557Z,101239.41
2018-07-22T08:22:11.077Z,101242.67
2018-07-22T08:25:35.506Z,101245.95
2018-07-22T08:29:28.878Z,101245.30
2018-07-22T08:32:53.359Z,101239.75
2018-07-22T08:36:17.855Z,101240.86
2018-07-22T08:39:42.331Z,101240.95
2018-07-22T08:43:06.854Z,101239.16
2018-07-22T08:46:31.348Z,101240.95
2018-07-22T08:49:55.870Z,101244.02
2018-07-22T08:53:21.363Z,101248.68
2018-07-22T08:56:45.847Z,101242.33
2018-07-22T09:00:10.414Z,101253.38
2018-07-22T09:03:34.984Z,101239.03
2018-07-22T09:06:59.491Z,101240.22
2018-07-22T09:10:24.008Z,101246.94
2018-07-22T09:13:48.548Z,101249.34
2018-07-22T09:17:13.075Z,101250.41
2018-07-22T09:20:37.644Z,101258.62
2018-07-22T09:24:02.159Z,101259.55
2018-07-22T09:27:26.642Z,101258.14
2018-07-22T09:30:51.170Z,101257.17
2018-07-22T09:34:15.745Z,101260.51
2018-07-22T09:37:40.276Z,101259.01
2018-07-22T09:41:04.793Z,101258.67
2018-07-22T09:44:29.294Z,101258.78
2018-07-22T09:47:53.773Z,101263.38
2018-07-22T09:51:18.344Z,101258.61
2018-07-22T09:54:42.884Z,101253.82
2018-07-22T09:58:07.377Z,101255.31
2018-07-22T10:01:31.930Z,101256.83
2018-07-22T10:04:56.441Z,101259.20
2018-07-22T10:08:20.986Z,101262.70
2018-07-22T10:11:45.526Z,101262.14
2018-07-22T10:15:10.505Z,101262.88
2018-07-22T10:18:35.006Z,101254.29
2018-07-22T10:21:59.617Z,101250.03
2018-07-22T10:25:24.208Z,101253.36
2018-07-22T10:28:48.723Z,101249.98
2018-07-22T10:32:13.254Z,101247.98
2018-07-22T10:35:37.755Z,101252.89
2018-07-22T10:39:02.276Z,101248.75
2018-07-22T10:42:26.876Z,101253.69
2018-07-22T10:45:51.395Z,101252.55
2018-07-22T10:49:15.923Z,101249.67
2018-07-22T10:52:40.400Z,101250.19
2018-07-22T10:56:04.955Z,101247.80
2018-07-22T10:59:29.459Z,101248.08
2018-07-22T11:02:54.039Z,101242.63
2018-07-22T11:06:18.534Z,101238.45
2018-07-22T11:09:43.003Z,101235.92
2018-07-22T11:13:07.511Z,101232.67
2018-07-22T11:16:31.969Z,101232.72
2018-07-22T11:19:56.504Z,101232.38
2018-07-22T11:23:20.974Z,101231.88
2018-07-22T11:26:45.446Z,101227.93
2018-07-22T11:30:09.911Z,101220.13
2018-07-22T11:33:34.410Z,101228.33
2018-07-22T11:36:58.881Z,101225.67
2018-07-22T11:40:23.377Z,101229.14
2018-07-22T11:43:47.869Z,101232.39
2018-07-22T11:47:12.340Z,101220.66
2018-07-22T11:50:36.847Z,101221.66
2018-07-22T11:54:01.292Z,101221.74
2018-07-22T11:57:25.727Z,101208.98
2018-07-22T12:00:50.546Z,101218.18
2018-07-22T12:04:14.971Z,101203.70
2018-07-22T12:07:39.558Z,101212.27
2018-07-22T12:11:04.058Z,101204.94
2018-07-22T12:14:28.533Z,101210.27
2018-07-22T12:17:53.063Z,101194.91
2018-07-22T12:21:39.350Z,101196.97
2018-07-22T12:25:03.979Z,101190.75
2018-07-22T12:28:28.435Z,101193.16
2018-07-22T12:31:52.912Z,101184.40
2018-07-22T12:35:17.393Z,101185.38
2018-07-22T12:38:41.845Z,101177.28
2018-07-22T12:42:06.732Z,101177.61
2018-07-22T12:45:31.206Z,101171.87
2018-07-22T12:48:55.677Z,101165.94
2018-07-22T12:52:20.208Z,101175.84
2018-07-22T12:55:44.664Z,101167.56
2018-07-22T12:59:09.145Z,101173.31
2018-07-22T13:02:33.587Z,101182.31
2018-07-22T13:05:58.069Z,101168.01
2018-07-22T13:09:22.553Z,101171.45
2018-07-22T13:12:47.113Z,101167.16
2018-07-22T13:16:11.611Z,101162.06
2018-07-22T13:19:36.038Z,101166.83
2018-07-22T13:23:00.507Z,101166.68
2018-07-22T13:26:24.977Z,101166.58
2018-07-22T13:29:49.449Z,101166.16
2018-07-22T13:33:13.914Z,101159.06
2018-07-22T13:36:38.396Z,101162.20
2018-07-22T13:40:02.888Z,101169.67
2018-07-22T13:43:27.422Z,101160.05
2018-07-22T13:46:51.903Z,101166.73
2018-07-22T13:50:16.459Z,101160.80
2018-07-22T13:53:40.983Z,101160.56
2018-07-22T13:57:05.477Z,101160.88
2018-07-22T14:00:29.938Z,101158.91
2018-07-22T14:03:54.462Z,101164.91
2018-07-22T14:07:19.062Z,101174.75
2018-07-22T14:10:43.490Z,101168.27
2018-07-22T14:14:08.546Z,101175.02
2018-07-22T14:17:33.034Z,101180.88
2018-07-22T14:20:57.573Z,101180.17
2018-07-22T14:24:22.083Z,101183.52
2018-07-22T14:27:46.563Z,101185.39
2018-07-22T14:31:11.114Z,101179.54
2018-07-22T14:34:35.599Z,101184.23
2018-07-22T14:38:00.083Z,101180.86
2018-07-22T14:41:24.837Z,101173.97
2018-07-22T14:44:49.282Z,101171.92
2018-07-22T14:48:13.784Z,101180.83
2018-07-22T14:51:38.319Z,101178.97
2018-07-22T14:55:02.784Z,101177.92
2018-07-22T14:58:27.253Z,101181.68
2018-07-22T15:01:51.708Z,101173.33
2018-07-22T15:05:16.222Z,101169.40
2018-07-22T15:08:40.862Z,101178.86
2018-07-22T15:12:05.391Z,101174.55
2018-07-22T15:15:29.872Z,101176.30
2018-07-22T15:18:54.392Z,101167.84
2018-07-22T15:22:18.893Z,101165.16
2018-07-22T15:25:43.365Z,101168.76
2018-07-22T15:29:07.895Z,101167.96
2018-07-22T15:32:32.366Z,101169.64
2018-07-22T15:35:56.842Z,101172.98
2018-07-22T15:39:21.285Z,101164.55
2018-07-22T15:42:45.808Z,101166.01
2018-07-22T15:46:10.254Z,101155.27
2018-07-22T15:49:34.799Z,101152.53
2018-07-22T15:52:59.252Z,101153.89
2018-07-22T15:56:23.724Z,101159.03
2018-07-22T15:59:48.213Z,101153.57
2018-07-22T16:03:12.667Z,101157.66
2018-07-22T16:06:37.132Z,101154.37
2018-07-22T16:10:01.597Z,101155.48
2018-07-22T16:13:26.124Z,101159.66
2018-07-22T16:16:50.579Z,101156.91
2018-07-22T16:20:15.099Z,101155.33
2018-07-22T16:23:39.700Z,101158.66
2018-07-22T16:27:04.185Z,101159.80
2018-07-22T16:30:28.769Z,101161.33
2018-07-22T16:33:53.272Z,101147.16
2018-07-22T16:37:17.733Z,101154.03
2018-07-22T16:40:42.253Z,101152.50
2018-07-22T16:44:07.284Z,101153.13
2018-07-22T16:47:31.727Z,101150.16
2018-07-22T16:50:56.185Z,101144.01
2018-07-22T16:54:20.624Z,101143.76
2018-07-22T16:57:45.050Z,101138.27
2018-07-22T17:01:09.514Z,101138.10
2018-07-22T17:04:33.978Z,101147.13
2018-07-22T17:07:58.482Z,101145.02
2018-07-22T17:11:23.027Z,101148.70
2018-07-22T17:14:47.477Z,101149.94
2018-07-22T17:18:11.624Z,101160.83
2018-07-22T17:21:36.076Z,101158.39
2018-07-22T17:25:00.515Z,101160.59
2018-07-22T17:28:25.016Z,101162.94
2018-07-22T17:31:49.476Z,101153.50
2018-07-22T17:35:13.938Z,101156.51
2018-07-22T17:38:38.397Z,101156.31
2018-07-22T17:42:02.866Z,101157.91
2018-07-22T17:45:27.327Z,101158.34
2018-07-22T17:48:51.787Z,101154.94
2018-07-22T17:52:16.202Z,101160.32
2018-07-22T17:55:40.683Z,101158.00
2018-07-22T17:59:05.185Z,101165.22
2018-07-22T18:02:29.650Z,101173.73
2018-07-22T18:05:54.134Z,101166.75
2018-07-22T18:09:18.587Z,101165.13
2018-07-22T18:12:43.049Z,101160.41
2018-07-22T18:16:07.573Z,101165.39
2018-07-22T18:19:31.735Z,101173.69
2018-07-22T18:22:56.202Z,101173.83
2018-07-22T18:26:20.714Z,101173.20
2018-07-22T18:29:45.185Z,101181.05
2018-07-22T18:33:09.653Z,101183.72
2018-07-22T18:36:34.108Z,101183.58
2018-07-22T18:39:58.565Z,101186.76
2018-07-22T18:43:23.054Z,101193.53
2018-07-22T18:46:47.557Z,101196.02
2018-07-22T18:50:12.229Z,101202.64
2018-07-22T18:53:36.762Z,101206.00
2018-07-22T18:57:01.211Z,101209.28
2018-07-22T19:00:25.719Z,101206.75
2018-07-22T19:03:50.275Z,101209.71
2018-07-22T19:07:14.724Z,101213.77
2018-07-22T19:10:39.179Z,101213.11
2018-07-22T19:14:03.664Z,101217.34
2018-07-22T19:17:28.118Z,101221.67
2018-07-22T19:20:52.593Z,101224.66
2018-07-22T19:24:17.071Z,101231.32
2018-07-22T19:27:41.573Z,101233.42
2018-07-22T19:31:06.086Z,101235.65
2018-07-22T19:34:30.544Z,101246.05
2018-07-22T19:37:55.225Z,101247.11
2018-07-22T19:41:19.704Z,101251.75
2018-07-22T19:44:44.174Z,101252.73
2018-07-22T19:48:08.744Z,101262.11
2018-07-22T19:51:33.085Z,101263.44
2018-07-22T19:54:57.528Z,101272.08
2018-07-22T19:58:21.975Z,101273.63
2018-07-22T20:01:46.447Z,101280.25
2018-07-22T20:05:11.753Z,101282.42
2018-07-22T20:08:36.252Z,101283.67
2018-07-22T20:12:00.702Z,101281.95
2018-07-22T20:15:25.173Z,101292.55
2018-07-22T20:18:49.600Z,101294.16
2018-07-22T20:22:14.063Z,101292.20
2018-07-22T20:25:38.533Z,101301.75
2018-07-22T20:29:03.062Z,101300.08
2018-07-22T20:32:27.509Z,101310.06
2018-07-22T20:35:51.968Z,101310.33
2018-07-22T20:39:16.448Z,101313.34
2018-07-22T20:42:40.911Z,101317.88
2018-07-22T20:46:05.400Z,101321.02
2018-07-22T20:49:29.842Z,101319.00
2018-07-22T20:52:54.283Z,101329.03
2018-07-22T20:56:18.847Z,101330.68
2018-07-22T20:59:43.339Z,101343.42
2018-07-22T21:03:07.770Z,101340.67
2018-07-22T21:06:32.292Z,101342.98
2018-07-22T21:09:56.734Z,101347.33
2018-07-22T21:13:28.040Z,101349.63
2018-07-22T21:16:52.497Z,101346.35
2018-07-22T21:20:18.031Z,101350.34
2018-07-22T21:23:42.497Z,101352.31
2018-07-22T21:27:06.990Z,101361.23
2018-07-22T21:30:31.431Z,101358.87
2018-07-22T21:33:55.922Z,101356.80
2018-07-22T21:37:20.687Z,101363.52
2018-07-22T21:40:45.154Z,101365.44
2018-07-22T21:44:09.608Z,101367.14
2018-07-22T21:47:34.217Z,101365.05
2018-07-22T21:50:58.695Z,101367.63
2018-07-22T21:54:23.160Z,101372.11
2018-07-22T21:57:47.636Z,101373.81
2018-07-22T22:01:12.164Z,101372.27
2018-07-22T22:04:36.662Z,101370.55
2018-07-22T22:08:01.138Z,101370.72
2018-07-22T22:11:25.632Z,101372.42
2018-07-22T22:14:50.078Z,101374.31
2018-07-22T22:18:14.590Z,101374.83
2018-07-22T22:21:39.084Z,101379.23
2018-07-22T22:25:03.630Z,101387.31
2018-07-22T22:28:28.093Z,101387.48
2018-07-22T22:31:52.583Z,101393.05
2018-07-22T22:35:17.070Z,101394.52
2018-07-22T22:38:41.524Z,101384.42
2018-07-22T22:42:05.982Z,101395.55
2018-07-22T22:45:30.447Z,101393.66
2018-07-22T22:48:54.887Z,101394.64
2018-07-22T22:52:19.356Z,101396.30
2018-07-22T22:55:43.822Z,101401.80
2018-07-22T22:59:20.684Z,101405.02
2018-07-22T23:02:45.214Z,101404.31
2018-07-22T23:06:09.692Z,101396.25
2018-07-22T23:09:34.146Z,101400.73
2018-07-22T23:12:58.628Z,101397.02
2018-07-22T23:16:23.077Z,101388.38
2018-07-22T23:19:47.663Z,101388.72
2018-07-22T23:23:12.134Z,101391.17
2018-07-22T23:26:36.631Z,101391.51
2018-07-22T23:30:01.110Z,101395.72
2018-07-22T23:33:25.506Z,101392.20
2018-07-22T23:36:49.974Z,101397.00
2018-07-22T23:40:14.464Z,101393.02
2018-07-22T23:43:39.094Z,101392.28
2018-07-22T23:47:03.524Z,101394.39
2018-07-22T23:50:27.984Z,101392.48
2018-07-22T23:53:52.416Z,101392.22
2018-07-22T23:57:16.876Z,101395.45
